sensor_id;sensor_type;location;lat;lon;timestamp;temperature;humidity
49489;SHT31;35382;51.484;11.476;2022-12-07T00:00:26;0.06;99.99
49489;SHT31;35382;51.484;11.476;2022-12-07T00:02:07;0.00;99.99
49489;SHT31;35382;51.484;11.476;2022-12-07T00:03:49;-0.07;99.99
49489;SHT31;35382;51.484;11.476;2022-12-07T00:05:31;0.07;99.99
49489;SHT31;35382;51.484;11.476;2022-12-07T00:07:12;-0.01;99.99
49489;SHT31;35382;51.484;11.476;2022-12-07T00:08:53;-0.04;99.99
49489;SHT31;35382;51.484;11.476;2022-12-07T00:10:34;-0.14;99.99
49489;SHT31;35382;51.484;11.476;2022-12-07T00:12:15;-0.13;99.99
49489;SHT31;35382;51.484;11.476;2022-12-07T00:13:59;-0.10;99.99
49489;SHT31;35382;51.484;11.476;2022-12-07T00:15:40;-0.11;99.99
49489;SHT31;35382;51.484;11.476;2022-12-07T00:17:21;0.09;99.99
49489;SHT31;35382;51.484;11.476;2022-12-07T00:19:03;0.07;99.99
49489;SHT31;35382;51.484;11.476;2022-12-07T00:20:44;0.05;99.99
49489;SHT31;35382;51.484;11.476;2022-12-07T00:22:25;-0.04;99.99
49489;SHT31;35382;51.484;11.476;2022-12-07T00:24:07;-0.11;99.99
49489;SHT31;35382;51.484;11.476;2022-12-07T00:25:48;-0.17;99.99
49489;SHT31;35382;51.484;11.476;2022-12-07T00:27:29;-0.18;99.99
49489;SHT31;35382;51.484;11.476;2022-12-07T00:29:15;-0.10;99.99
49489;SHT31;35382;51.484;11.476;2022-12-07T00:31:08;-0.01;99.99
49489;SHT31;35382;51.484;11.476;2022-12-07T00:32:49;0.00;99.99
49489;SHT31;35382;51.484;11.476;2022-12-07T00:34:31;0.05;99.99
49489;SHT31;35382;51.484;11.476;2022-12-07T00:36:15;0.05;99.99
49489;SHT31;35382;51.484;11.476;2022-12-07T00:37:56;0.03;99.99
49489;SHT31;35382;51.484;11.476;2022-12-07T00:39:37;0.06;99.99
49489;SHT31;35382;51.484;11.476;2022-12-07T00:41:23;0.11;99.99
49489;SHT31;35382;51.484;11.476;2022-12-07T00:43:04;0.19;99.99
49489;SHT31;35382;51.484;11.476;2022-12-07T00:44:45;0.27;99.99
49489;SHT31;35382;51.484;11.476;2022-12-07T00:46:26;0.41;99.99
49489;SHT31;35382;51.484;11.476;2022-12-07T00:48:07;0.39;99.99
49489;SHT31;35382;51.484;11.476;2022-12-07T00:49:48;0.43;99.99
49489;SHT31;35382;51.484;11.476;2022-12-07T00:51:29;0.47;99.99
49489;SHT31;35382;51.484;11.476;2022-12-07T00:53:10;0.50;99.99
49489;SHT31;35382;51.484;11.476;2022-12-07T00:54:51;0.53;99.99
49489;SHT31;35382;51.484;11.476;2022-12-07T00:56:32;0.50;99.99
49489;SHT31;35382;51.484;11.476;2022-12-07T00:58:13;0.53;99.99
49489;SHT31;35382;51.484;11.476;2022-12-07T00:59:54;0.57;99.99
49489;SHT31;35382;51.484;11.476;2022-12-07T01:01:38;0.57;99.99
49489;SHT31;35382;51.484;11.476;2022-12-07T01:03:19;0.61;99.99
49489;SHT31;35382;51.484;11.476;2022-12-07T01:05:00;0.61;99.99
49489;SHT31;35382;51.484;11.476;2022-12-07T01:06:41;0.64;99.99
49489;SHT31;35382;51.484;11.476;2022-12-07T01:08:23;0.63;99.99
49489;SHT31;35382;51.484;11.476;2022-12-07T01:10:04;0.61;99.99
49489;SHT31;35382;51.484;11.476;2022-12-07T01:11:46;0.63;99.99
49489;SHT31;35382;51.484;11.476;2022-12-07T01:13:27;0.63;99.99
49489;SHT31;35382;51.484;11.476;2022-12-07T01:15:09;0.64;99.99
49489;SHT31;35382;51.484;11.476;2022-12-07T01:16:50;0.67;99.99
49489;SHT31;35382;51.484;11.476;2022-12-07T01:18:33;0.64;99.99
49489;SHT31;35382;51.484;11.476;2022-12-07T01:20:14;0.64;99.99
49489;SHT31;35382;51.484;11.476;2022-12-07T01:21:56;0.68;99.99
49489;SHT31;35382;51.484;11.476;2022-12-07T01:23:37;0.71;99.99
49489;SHT31;35382;51.484;11.476;2022-12-07T01:25:18;0.73;99.71
49489;SHT31;35382;51.484;11.476;2022-12-07T01:26:59;0.68;99.89
49489;SHT31;35382;51.484;11.476;2022-12-07T01:28:40;0.67;99.99
49489;SHT31;35382;51.484;11.476;2022-12-07T01:30:21;0.70;99.70
49489;SHT31;35382;51.484;11.476;2022-12-07T01:32:03;0.71;99.92
49489;SHT31;35382;51.484;11.476;2022-12-07T01:33:47;0.67;99.99
49489;SHT31;35382;51.484;11.476;2022-12-07T01:35:28;0.71;99.91
49489;SHT31;35382;51.484;11.476;2022-12-07T01:37:09;0.71;99.84
49489;SHT31;35382;51.484;11.476;2022-12-07T01:38:54;0.73;99.62
49489;SHT31;35382;51.484;11.476;2022-12-07T01:40:37;0.74;99.67
49489;SHT31;35382;51.484;11.476;2022-12-07T01:42:19;0.73;99.85
49489;SHT31;35382;51.484;11.476;2022-12-07T01:44:23;0.73;99.95
49489;SHT31;35382;51.484;11.476;2022-12-07T01:46:05;0.71;99.97
49489;SHT31;35382;51.484;11.476;2022-12-07T01:47:53;0.77;99.92
49489;SHT31;35382;51.484;11.476;2022-12-07T01:49:43;0.77;99.66
49489;SHT31;35382;51.484;11.476;2022-12-07T01:51:27;0.77;99.47
49489;SHT31;35382;51.484;11.476;2022-12-07T01:53:09;0.77;99.46
49489;SHT31;35382;51.484;11.476;2022-12-07T01:54:54;0.81;99.53
49489;SHT31;35382;51.484;11.476;2022-12-07T01:56:37;0.80;99.78
49489;SHT31;35382;51.484;11.476;2022-12-07T01:58:20;0.74;99.82
49489;SHT31;35382;51.484;11.476;2022-12-07T02:00:03;0.71;99.95
49489;SHT31;35382;51.484;11.476;2022-12-07T02:01:54;0.73;99.80
49489;SHT31;35382;51.484;11.476;2022-12-07T02:03:38;0.73;99.90
49489;SHT31;35382;51.484;11.476;2022-12-07T02:05:21;0.70;99.94
49489;SHT31;35382;51.484;11.476;2022-12-07T02:07:04;0.73;99.87
49489;SHT31;35382;51.484;11.476;2022-12-07T02:08:46;0.70;99.86
49489;SHT31;35382;51.484;11.476;2022-12-07T02:10:30;0.70;99.92
49489;SHT31;35382;51.484;11.476;2022-12-07T02:12:11;0.70;99.99
49489;SHT31;35382;51.484;11.476;2022-12-07T02:13:53;0.73;99.73
49489;SHT31;35382;51.484;11.476;2022-12-07T02:16:09;0.68;99.87
49489;SHT31;35382;51.484;11.476;2022-12-07T02:18:22;0.77;99.70
49489;SHT31;35382;51.484;11.476;2022-12-07T02:20:17;0.77;99.50
49489;SHT31;35382;51.484;11.476;2022-12-07T02:26:01;0.73;99.48
49489;SHT31;35382;51.484;11.476;2022-12-07T02:28:07;0.73;99.54
49489;SHT31;35382;51.484;11.476;2022-12-07T02:29:58;0.73;99.48
49489;SHT31;35382;51.484;11.476;2022-12-07T02:31:49;0.73;99.53
49489;SHT31;35382;51.484;11.476;2022-12-07T02:33:36;0.68;99.82
49489;SHT31;35382;51.484;11.476;2022-12-07T02:35:22;0.68;99.83
49489;SHT31;35382;51.484;11.476;2022-12-07T02:37:10;0.70;99.59
49489;SHT31;35382;51.484;11.476;2022-12-07T02:40:42;0.68;99.51
49489;SHT31;35382;51.484;11.476;2022-12-07T02:42:31;0.64;99.87
49489;SHT31;35382;51.484;11.476;2022-12-07T02:44:18;0.57;99.99
49489;SHT31;35382;51.484;11.476;2022-12-07T02:46:14;0.58;99.99
49489;SHT31;35382;51.484;11.476;2022-12-07T02:47:58;0.56;99.99
49489;SHT31;35382;51.484;11.476;2022-12-07T02:49:39;0.53;99.99
49489;SHT31;35382;51.484;11.476;2022-12-07T02:51:22;0.53;99.99
49489;SHT31;35382;51.484;11.476;2022-12-07T02:53:03;0.57;99.99
49489;SHT31;35382;51.484;11.476;2022-12-07T02:54:43;0.58;99.99
49489;SHT31;35382;51.484;11.476;2022-12-07T02:56:46;0.61;99.99
49489;SHT31;35382;51.484;11.476;2022-12-07T02:58:42;0.58;99.98
49489;SHT31;35382;51.484;11.476;2022-12-07T03:00:27;0.57;99.99
49489;SHT31;35382;51.484;11.476;2022-12-07T03:04:02;0.53;99.99
49489;SHT31;35382;51.484;11.476;2022-12-07T03:06:20;0.56;99.99
49489;SHT31;35382;51.484;11.476;2022-12-07T03:08:13;0.58;99.99
49489;SHT31;35382;51.484;11.476;2022-12-07T03:10:50;0.60;99.99
49489;SHT31;35382;51.484;11.476;2022-12-07T03:12:42;0.60;99.99
49489;SHT31;35382;51.484;11.476;2022-12-07T03:14:30;0.60;99.99
49489;SHT31;35382;51.484;11.476;2022-12-07T03:18:22;0.64;99.99
49489;SHT31;35382;51.484;11.476;2022-12-07T03:20:06;0.64;99.99
49489;SHT31;35382;51.484;11.476;2022-12-07T03:22:00;0.65;99.99
49489;SHT31;35382;51.484;11.476;2022-12-07T03:23:45;0.70;99.99
49489;SHT31;35382;51.484;11.476;2022-12-07T03:25:27;0.71;99.99
49489;SHT31;35382;51.484;11.476;2022-12-07T03:27:17;0.77;99.95
49489;SHT31;35382;51.484;11.476;2022-12-07T03:29:03;0.78;99.88
49489;SHT31;35382;51.484;11.476;2022-12-07T03:30:56;0.78;99.96
49489;SHT31;35382;51.484;11.476;2022-12-07T03:33:11;0.77;99.99
49489;SHT31;35382;51.484;11.476;2022-12-07T03:38:34;0.75;99.99
49489;SHT31;35382;51.484;11.476;2022-12-07T03:40:34;0.75;99.99
49489;SHT31;35382;51.484;11.476;2022-12-07T03:42:17;0.74;99.99
49489;SHT31;35382;51.484;11.476;2022-12-07T03:43:58;0.75;99.99
49489;SHT31;35382;51.484;11.476;2022-12-07T03:45:41;0.77;99.99
49489;SHT31;35382;51.484;11.476;2022-12-07T03:47:32;0.80;99.99
49489;SHT31;35382;51.484;11.476;2022-12-07T03:49:20;0.78;99.99
49489;SHT31;35382;51.484;11.476;2022-12-07T03:53:15;0.77;99.99
49489;SHT31;35382;51.484;11.476;2022-12-07T03:56:44;0.74;99.99
49489;SHT31;35382;51.484;11.476;2022-12-07T03:58:25;0.75;99.99
49489;SHT31;35382;51.484;11.476;2022-12-07T04:00:07;0.74;99.99
49489;SHT31;35382;51.484;11.476;2022-12-07T04:02:01;0.75;99.99
49489;SHT31;35382;51.484;11.476;2022-12-07T04:03:43;0.77;99.99
49489;SHT31;35382;51.484;11.476;2022-12-07T04:05:24;0.74;99.99
49489;SHT31;35382;51.484;11.476;2022-12-07T04:07:05;0.78;99.99
49489;SHT31;35382;51.484;11.476;2022-12-07T04:08:46;0.78;99.99
49489;SHT31;35382;51.484;11.476;2022-12-07T04:10:27;0.80;99.99
49489;SHT31;35382;51.484;11.476;2022-12-07T04:12:08;0.77;99.99
49489;SHT31;35382;51.484;11.476;2022-12-07T04:13:49;0.81;99.99
49489;SHT31;35382;51.484;11.476;2022-12-07T04:15:48;0.87;99.99
49489;SHT31;35382;51.484;11.476;2022-12-07T04:17:29;0.88;99.99
49489;SHT31;35382;51.484;11.476;2022-12-07T04:19:10;0.91;99.99
49489;SHT31;35382;51.484;11.476;2022-12-07T04:20:51;0.88;99.99
49489;SHT31;35382;51.484;11.476;2022-12-07T04:22:32;0.85;99.99
49489;SHT31;35382;51.484;11.476;2022-12-07T04:24:14;0.88;99.99
49489;SHT31;35382;51.484;11.476;2022-12-07T04:25:55;0.87;99.99
49489;SHT31;35382;51.484;11.476;2022-12-07T04:27:36;0.87;99.99
49489;SHT31;35382;51.484;11.476;2022-12-07T04:29:18;0.85;99.99
49489;SHT31;35382;51.484;11.476;2022-12-07T04:30:59;0.84;99.99
49489;SHT31;35382;51.484;11.476;2022-12-07T04:32:40;0.87;99.99
49489;SHT31;35382;51.484;11.476;2022-12-07T04:34:21;0.84;99.99
49489;SHT31;35382;51.484;11.476;2022-12-07T04:36:02;0.87;99.99
49489;SHT31;35382;51.484;11.476;2022-12-07T04:37:43;0.84;99.99
49489;SHT31;35382;51.484;11.476;2022-12-07T04:39:29;0.88;99.99
49489;SHT31;35382;51.484;11.476;2022-12-07T04:41:10;0.92;99.99
49489;SHT31;35382;51.484;11.476;2022-12-07T04:42:51;0.95;99.99
49489;SHT31;35382;51.484;11.476;2022-12-07T04:44:32;0.94;99.99
49489;SHT31;35382;51.484;11.476;2022-12-07T04:46:13;0.95;99.99
49489;SHT31;35382;51.484;11.476;2022-12-07T04:47:54;0.99;99.99
49489;SHT31;35382;51.484;11.476;2022-12-07T04:49:35;1.01;99.99
49489;SHT31;35382;51.484;11.476;2022-12-07T04:51:19;1.01;99.99
49489;SHT31;35382;51.484;11.476;2022-12-07T04:53:00;1.05;99.99
49489;SHT31;35382;51.484;11.476;2022-12-07T04:54:41;1.05;99.99
49489;SHT31;35382;51.484;11.476;2022-12-07T04:56:23;1.07;99.99
49489;SHT31;35382;51.484;11.476;2022-12-07T04:58:04;1.11;99.99
49489;SHT31;35382;51.484;11.476;2022-12-07T04:59:45;1.15;99.99
49489;SHT31;35382;51.484;11.476;2022-12-07T05:01:26;1.12;99.99
49489;SHT31;35382;51.484;11.476;2022-12-07T05:03:07;1.18;99.99
49489;SHT31;35382;51.484;11.476;2022-12-07T05:04:48;1.19;99.99
49489;SHT31;35382;51.484;11.476;2022-12-07T05:06:29;1.27;99.99
49489;SHT31;35382;51.484;11.476;2022-12-07T05:08:10;1.29;99.99
49489;SHT31;35382;51.484;11.476;2022-12-07T05:09:51;1.24;99.99
49489;SHT31;35382;51.484;11.476;2022-12-07T05:11:31;1.27;99.99
49489;SHT31;35382;51.484;11.476;2022-12-07T05:13:18;1.34;99.99
49489;SHT31;35382;51.484;11.476;2022-12-07T05:14:59;1.41;99.99
49489;SHT31;35382;51.484;11.476;2022-12-07T05:16:41;1.45;99.99
49489;SHT31;35382;51.484;11.476;2022-12-07T05:18:22;1.49;99.99
49489;SHT31;35382;51.484;11.476;2022-12-07T05:20:04;1.53;99.99
49489;SHT31;35382;51.484;11.476;2022-12-07T05:21:45;1.59;99.99
49489;SHT31;35382;51.484;11.476;2022-12-07T05:23:26;1.56;99.99
49489;SHT31;35382;51.484;11.476;2022-12-07T05:25:08;1.53;99.99
49489;SHT31;35382;51.484;11.476;2022-12-07T05:26:49;1.51;99.99
49489;SHT31;35382;51.484;11.476;2022-12-07T05:28:30;1.42;99.99
49489;SHT31;35382;51.484;11.476;2022-12-07T05:30:11;1.43;99.99
49489;SHT31;35382;51.484;11.476;2022-12-07T05:31:52;1.42;99.99
49489;SHT31;35382;51.484;11.476;2022-12-07T05:33:33;1.34;99.99
49489;SHT31;35382;51.484;11.476;2022-12-07T05:35:14;1.36;99.99
49489;SHT31;35382;51.484;11.476;2022-12-07T05:36:55;1.27;99.99
49489;SHT31;35382;51.484;11.476;2022-12-07T05:38:36;1.22;99.99
49489;SHT31;35382;51.484;11.476;2022-12-07T05:40:17;1.14;99.99
49489;SHT31;35382;51.484;11.476;2022-12-07T05:41:59;1.08;99.99
49489;SHT31;35382;51.484;11.476;2022-12-07T05:43:52;1.15;99.99
49489;SHT31;35382;51.484;11.476;2022-12-07T05:45:33;1.22;99.99
49489;SHT31;35382;51.484;11.476;2022-12-07T05:47:15;1.18;99.99
49489;SHT31;35382;51.484;11.476;2022-12-07T05:48:56;1.19;99.99
49489;SHT31;35382;51.484;11.476;2022-12-07T05:50:37;1.12;99.99
49489;SHT31;35382;51.484;11.476;2022-12-07T05:52:18;1.17;99.99
49489;SHT31;35382;51.484;11.476;2022-12-07T05:53:59;1.19;99.99
49489;SHT31;35382;51.484;11.476;2022-12-07T05:55:40;1.18;99.99
49489;SHT31;35382;51.484;11.476;2022-12-07T05:57:21;1.18;99.99
49489;SHT31;35382;51.484;11.476;2022-12-07T05:59:02;1.19;99.99
49489;SHT31;35382;51.484;11.476;2022-12-07T06:01:01;1.21;99.99
49489;SHT31;35382;51.484;11.476;2022-12-07T06:02:42;1.27;99.99
49489;SHT31;35382;51.484;11.476;2022-12-07T06:04:24;1.31;99.99
49489;SHT31;35382;51.484;11.476;2022-12-07T06:06:05;1.36;99.99
49489;SHT31;35382;51.484;11.476;2022-12-07T06:07:46;1.32;99.99
49489;SHT31;35382;51.484;11.476;2022-12-07T06:09:28;1.29;99.99
49489;SHT31;35382;51.484;11.476;2022-12-07T06:11:09;1.29;99.99
49489;SHT31;35382;51.484;11.476;2022-12-07T06:13:09;1.34;99.99
49489;SHT31;35382;51.484;11.476;2022-12-07T06:14:50;1.32;99.99
49489;SHT31;35382;51.484;11.476;2022-12-07T06:16:31;1.28;99.99
49489;SHT31;35382;51.484;11.476;2022-12-07T06:18:11;1.31;99.99
49489;SHT31;35382;51.484;11.476;2022-12-07T06:19:52;1.27;99.99
49489;SHT31;35382;51.484;11.476;2022-12-07T06:21:33;1.24;99.99
49489;SHT31;35382;51.484;11.476;2022-12-07T06:23:14;1.21;99.99
49489;SHT31;35382;51.484;11.476;2022-12-07T06:24:55;1.22;99.99
49489;SHT31;35382;51.484;11.476;2022-12-07T06:26:36;1.15;99.99
49489;SHT31;35382;51.484;11.476;2022-12-07T06:28:17;1.25;99.99
49489;SHT31;35382;51.484;11.476;2022-12-07T06:29:58;1.15;99.99
49489;SHT31;35382;51.484;11.476;2022-12-07T06:31:40;1.18;99.99
49489;SHT31;35382;51.484;11.476;2022-12-07T06:33:20;1.14;99.99
49489;SHT31;35382;51.484;11.476;2022-12-07T06:35:01;1.19;99.99
49489;SHT31;35382;51.484;11.476;2022-12-07T06:36:43;1.15;99.99
49489;SHT31;35382;51.484;11.476;2022-12-07T06:38:24;1.12;99.99
49489;SHT31;35382;51.484;11.476;2022-12-07T06:40:06;1.11;99.99
49489;SHT31;35382;51.484;11.476;2022-12-07T06:41:47;1.08;99.99
49489;SHT31;35382;51.484;11.476;2022-12-07T06:43:28;1.05;99.99
49489;SHT31;35382;51.484;11.476;2022-12-07T06:45:09;1.05;99.99
49489;SHT31;35382;51.484;11.476;2022-12-07T06:46:51;1.01;99.99
49489;SHT31;35382;51.484;11.476;2022-12-07T06:48:32;1.09;99.99
49489;SHT31;35382;51.484;11.476;2022-12-07T06:50:13;1.09;99.99
49489;SHT31;35382;51.484;11.476;2022-12-07T06:51:54;1.14;99.99
49489;SHT31;35382;51.484;11.476;2022-12-07T06:53:35;1.18;99.99
49489;SHT31;35382;51.484;11.476;2022-12-07T06:55:16;1.19;99.99
49489;SHT31;35382;51.484;11.476;2022-12-07T06:56:57;1.28;99.99
49489;SHT31;35382;51.484;11.476;2022-12-07T06:58:39;1.32;99.99
49489;SHT31;35382;51.484;11.476;2022-12-07T07:00:20;1.34;99.99
49489;SHT31;35382;51.484;11.476;2022-12-07T07:02:01;1.36;99.99
49489;SHT31;35382;51.484;11.476;2022-12-07T07:03:43;1.48;99.99
49489;SHT31;35382;51.484;11.476;2022-12-07T07:05:23;1.51;99.99
49489;SHT31;35382;51.484;11.476;2022-12-07T07:07:04;1.46;99.99
49489;SHT31;35382;51.484;11.476;2022-12-07T07:08:45;1.42;99.99
49489;SHT31;35382;51.484;11.476;2022-12-07T07:10:26;1.36;99.99
49489;SHT31;35382;51.484;11.476;2022-12-07T07:12:07;1.35;99.99
49489;SHT31;35382;51.484;11.476;2022-12-07T07:13:48;1.38;99.99
49489;SHT31;35382;51.484;11.476;2022-12-07T07:15:29;1.39;99.99
49489;SHT31;35382;51.484;11.476;2022-12-07T07:17:10;1.38;99.99
49489;SHT31;35382;51.484;11.476;2022-12-07T07:18:51;1.34;99.99
49489;SHT31;35382;51.484;11.476;2022-12-07T07:20:32;1.31;99.99
49489;SHT31;35382;51.484;11.476;2022-12-07T07:22:13;1.31;99.99
49489;SHT31;35382;51.484;11.476;2022-12-07T07:23:54;1.42;99.99
49489;SHT31;35382;51.484;11.476;2022-12-07T07:25:35;1.46;99.99
49489;SHT31;35382;51.484;11.476;2022-12-07T07:27:16;1.49;99.99
49489;SHT31;35382;51.484;11.476;2022-12-07T07:28:57;1.55;99.99
49489;SHT31;35382;51.484;11.476;2022-12-07T07:30:38;1.56;99.99
49489;SHT31;35382;51.484;11.476;2022-12-07T07:32:19;1.51;99.99
49489;SHT31;35382;51.484;11.476;2022-12-07T07:34:00;1.51;99.99
49489;SHT31;35382;51.484;11.476;2022-12-07T07:35:41;1.53;99.99
49489;SHT31;35382;51.484;11.476;2022-12-07T07:37:23;1.55;99.99
49489;SHT31;35382;51.484;11.476;2022-12-07T07:39:03;1.49;99.99
49489;SHT31;35382;51.484;11.476;2022-12-07T07:40:45;1.49;99.99
49489;SHT31;35382;51.484;11.476;2022-12-07T07:42:26;1.51;99.99
49489;SHT31;35382;51.484;11.476;2022-12-07T07:44:07;1.51;99.99
49489;SHT31;35382;51.484;11.476;2022-12-07T07:45:48;1.49;99.99
49489;SHT31;35382;51.484;11.476;2022-12-07T07:47:29;1.51;99.99
49489;SHT31;35382;51.484;11.476;2022-12-07T07:49:10;1.53;99.99
49489;SHT31;35382;51.484;11.476;2022-12-07T07:50:51;1.51;99.99
49489;SHT31;35382;51.484;11.476;2022-12-07T07:52:32;1.58;99.99
49489;SHT31;35382;51.484;11.476;2022-12-07T07:54:13;1.51;99.99
49489;SHT31;35382;51.484;11.476;2022-12-07T07:55:54;1.52;99.99
49489;SHT31;35382;51.484;11.476;2022-12-07T07:57:36;1.53;99.99
49489;SHT31;35382;51.484;11.476;2022-12-07T07:59:17;1.56;99.99
49489;SHT31;35382;51.484;11.476;2022-12-07T08:01:04;1.60;99.99
49489;SHT31;35382;51.484;11.476;2022-12-07T08:02:45;1.63;99.99
49489;SHT31;35382;51.484;11.476;2022-12-07T08:04:26;1.76;99.99
49489;SHT31;35382;51.484;11.476;2022-12-07T08:06:07;1.80;99.99
49489;SHT31;35382;51.484;11.476;2022-12-07T08:07:48;1.85;99.99
49489;SHT31;35382;51.484;11.476;2022-12-07T08:09:29;1.92;99.78
49489;SHT31;35382;51.484;11.476;2022-12-07T08:11:10;2.02;99.14
49489;SHT31;35382;51.484;11.476;2022-12-07T08:12:51;2.07;99.08
49489;SHT31;35382;51.484;11.476;2022-12-07T08:14:51;2.07;99.22
49489;SHT31;35382;51.484;11.476;2022-12-07T08:16:32;2.11;98.77
49489;SHT31;35382;51.484;11.476;2022-12-07T08:18:13;2.11;98.73
49489;SHT31;35382;51.484;11.476;2022-12-07T08:19:54;2.11;99.03
49489;SHT31;35382;51.484;11.476;2022-12-07T08:21:35;2.17;98.95
49489;SHT31;35382;51.484;11.476;2022-12-07T08:23:17;2.20;98.58
49489;SHT31;35382;51.484;11.476;2022-12-07T08:24:58;2.24;98.41
49489;SHT31;35382;51.484;11.476;2022-12-07T08:26:40;2.26;98.57
49489;SHT31;35382;51.484;11.476;2022-12-07T08:28:21;2.27;98.81
49489;SHT31;35382;51.484;11.476;2022-12-07T08:30:02;2.31;98.72
49489;SHT31;35382;51.484;11.476;2022-12-07T08:31:43;2.31;98.51
49489;SHT31;35382;51.484;11.476;2022-12-07T08:33:24;2.31;99.01
49489;SHT31;35382;51.484;11.476;2022-12-07T08:35:06;2.37;98.41
49489;SHT31;35382;51.484;11.476;2022-12-07T08:36:47;2.37;98.36
49489;SHT31;35382;51.484;11.476;2022-12-07T08:38:28;2.41;98.33
49489;SHT31;35382;51.484;11.476;2022-12-07T08:40:10;2.45;98.48
49489;SHT31;35382;51.484;11.476;2022-12-07T08:41:52;2.43;98.79
49489;SHT31;35382;51.484;11.476;2022-12-07T08:43:33;2.41;99.19
49489;SHT31;35382;51.484;11.476;2022-12-07T08:45:16;2.45;98.79
49489;SHT31;35382;51.484;11.476;2022-12-07T08:46:59;2.47;98.59
49489;SHT31;35382;51.484;11.476;2022-12-07T08:48:48;2.50;98.38
49489;SHT31;35382;51.484;11.476;2022-12-07T08:50:31;2.44;98.63
49489;SHT31;35382;51.484;11.476;2022-12-07T08:52:13;2.50;98.60
49489;SHT31;35382;51.484;11.476;2022-12-07T08:53:55;2.44;98.44
49489;SHT31;35382;51.484;11.476;2022-12-07T08:55:36;2.48;98.30
49489;SHT31;35382;51.484;11.476;2022-12-07T08:57:17;2.48;98.24
49489;SHT31;35382;51.484;11.476;2022-12-07T08:58:58;2.40;98.41
49489;SHT31;35382;51.484;11.476;2022-12-07T09:00:39;2.45;98.54
49489;SHT31;35382;51.484;11.476;2022-12-07T09:02:20;2.50;98.25
49489;SHT31;35382;51.484;11.476;2022-12-07T09:04:01;2.53;98.33
49489;SHT31;35382;51.484;11.476;2022-12-07T09:05:42;2.53;98.45
49489;SHT31;35382;51.484;11.476;2022-12-07T09:07:24;2.57;98.34
49489;SHT31;35382;51.484;11.476;2022-12-07T09:09:06;2.54;98.67
49489;SHT31;35382;51.484;11.476;2022-12-07T09:10:47;2.57;98.41
49489;SHT31;35382;51.484;11.476;2022-12-07T09:12:28;2.60;98.31
49489;SHT31;35382;51.484;11.476;2022-12-07T09:14:09;2.58;98.57
49489;SHT31;35382;51.484;11.476;2022-12-07T09:15:50;2.58;98.67
49489;SHT31;35382;51.484;11.476;2022-12-07T09:17:34;2.58;98.63
49489;SHT31;35382;51.484;11.476;2022-12-07T09:19:16;2.64;98.53
49489;SHT31;35382;51.484;11.476;2022-12-07T09:20:57;2.67;98.42
49489;SHT31;35382;51.484;11.476;2022-12-07T09:22:38;2.71;98.48
49489;SHT31;35382;51.484;11.476;2022-12-07T09:24:19;2.73;98.08
49489;SHT31;35382;51.484;11.476;2022-12-07T09:26:03;2.77;98.19
49489;SHT31;35382;51.484;11.476;2022-12-07T09:27:45;2.75;98.53
49489;SHT31;35382;51.484;11.476;2022-12-07T09:29:26;2.80;98.38
49489;SHT31;35382;51.484;11.476;2022-12-07T09:31:07;2.75;98.46
49489;SHT31;35382;51.484;11.476;2022-12-07T09:32:48;2.75;98.12
49489;SHT31;35382;51.484;11.476;2022-12-07T09:34:31;2.70;98.88
49489;SHT31;35382;51.484;11.476;2022-12-07T09:36:12;2.68;99.28
49489;SHT31;35382;51.484;11.476;2022-12-07T09:37:53;2.70;99.14
49489;SHT31;35382;51.484;11.476;2022-12-07T09:39:37;2.68;99.49
49489;SHT31;35382;51.484;11.476;2022-12-07T09:41:19;2.68;99.45
49489;SHT31;35382;51.484;11.476;2022-12-07T09:43:00;2.73;99.32
49489;SHT31;35382;51.484;11.476;2022-12-07T09:44:41;2.73;99.74
49489;SHT31;35382;51.484;11.476;2022-12-07T09:46:22;2.73;99.68
49489;SHT31;35382;51.484;11.476;2022-12-07T09:48:03;2.74;99.34
49489;SHT31;35382;51.484;11.476;2022-12-07T09:49:45;2.70;99.87
49489;SHT31;35382;51.484;11.476;2022-12-07T09:51:26;2.74;99.52
49489;SHT31;35382;51.484;11.476;2022-12-07T09:53:36;2.74;99.66
49489;SHT31;35382;51.484;11.476;2022-12-07T09:55:38;2.78;99.33
49489;SHT31;35382;51.484;11.476;2022-12-07T09:57:31;2.85;98.87
49489;SHT31;35382;51.484;11.476;2022-12-07T09:59:17;2.88;98.63
49489;SHT31;35382;51.484;11.476;2022-12-07T10:01:05;2.89;98.73
49489;SHT31;35382;51.484;11.476;2022-12-07T10:02:57;2.94;98.35
49489;SHT31;35382;51.484;11.476;2022-12-07T10:04:46;2.97;98.03
49489;SHT31;35382;51.484;11.476;2022-12-07T10:06:28;2.99;98.28
49489;SHT31;35382;51.484;11.476;2022-12-07T10:08:11;3.04;98.15
49489;SHT31;35382;51.484;11.476;2022-12-07T10:09:53;3.04;98.27
49489;SHT31;35382;51.484;11.476;2022-12-07T10:11:34;3.05;97.92
49489;SHT31;35382;51.484;11.476;2022-12-07T10:13:23;3.04;97.57
49489;SHT31;35382;51.484;11.476;2022-12-07T10:15:14;3.09;97.49
49489;SHT31;35382;51.484;11.476;2022-12-07T10:16:56;3.15;97.82
49489;SHT31;35382;51.484;11.476;2022-12-07T10:18:39;3.21;96.61
49489;SHT31;35382;51.484;11.476;2022-12-07T10:22:16;3.23;97.37
49489;SHT31;35382;51.484;11.476;2022-12-07T10:25:55;3.29;96.39
49489;SHT31;35382;51.484;11.476;2022-12-07T10:27:36;3.36;95.83
49489;SHT31;35382;51.484;11.476;2022-12-07T10:29:38;3.40;96.13
49489;SHT31;35382;51.484;11.476;2022-12-07T10:31:22;3.51;95.49
49489;SHT31;35382;51.484;11.476;2022-12-07T10:33:30;3.51;95.66
49489;SHT31;35382;51.484;11.476;2022-12-07T10:35:30;3.51;95.51
49489;SHT31;35382;51.484;11.476;2022-12-07T10:37:15;3.52;94.97
49489;SHT31;35382;51.484;11.476;2022-12-07T10:39:10;3.49;95.16
49489;SHT31;35382;51.484;11.476;2022-12-07T10:41:12;3.52;95.49
49489;SHT31;35382;51.484;11.476;2022-12-07T10:51:35;3.66;93.91
49489;SHT31;35382;51.484;11.476;2022-12-07T10:55:11;3.72;94.57
49489;SHT31;35382;51.484;11.476;2022-12-07T11:03:05;3.53;95.55
49489;SHT31;35382;51.484;11.476;2022-12-07T11:05:09;3.49;95.47
49489;SHT31;35382;51.484;11.476;2022-12-07T11:07:00;3.45;95.41
49489;SHT31;35382;51.484;11.476;2022-12-07T11:16:36;4.09;93.05
49489;SHT31;35382;51.484;11.476;2022-12-07T11:22:20;4.25;91.99
49489;SHT31;35382;51.484;11.476;2022-12-07T11:24:15;4.13;91.75
49489;SHT31;35382;51.484;11.476;2022-12-07T11:28:06;4.00;92.87
49489;SHT31;35382;51.484;11.476;2022-12-07T11:29:55;3.94;92.85
49489;SHT31;35382;51.484;11.476;2022-12-07T11:33:46;4.00;93.54
49489;SHT31;35382;51.484;11.476;2022-12-07T11:37:16;3.82;93.23
49489;SHT31;35382;51.484;11.476;2022-12-07T11:39:03;3.86;93.89
49489;SHT31;35382;51.484;11.476;2022-12-07T11:40:49;3.82;93.48
49489;SHT31;35382;51.484;11.476;2022-12-07T11:42:37;3.82;94.03
49489;SHT31;35382;51.484;11.476;2022-12-07T11:44:39;3.86;94.07
49489;SHT31;35382;51.484;11.476;2022-12-07T11:46:28;3.82;93.62
49489;SHT31;35382;51.484;11.476;2022-12-07T11:48:20;3.80;93.51
49489;SHT31;35382;51.484;11.476;2022-12-07T11:52:34;3.77;94.20
49489;SHT31;35382;51.484;11.476;2022-12-07T11:54:23;3.76;94.22